Time;durP1;ratioP1;P1;durP2;ratioP2;P2;SDS_P1;SDS_P2;PMS_P1;PMS_P2;Temp;Humidity;BMP_temperature;BMP_pressure;BME280_temperature;BME280_humidity;BME280_pressure;Samples;Min_cycle;Max_cycle;Signal;HPM_P1;HPM_P2
2022/11/26 00:00:25;;;;;;;22.50;9.27;;;;;;;7.23;77.99;101684.91;4204152;28;20093;-64
2022/11/26 00:02:31;;;;;;;21.23;8.23;;;;;;;7.24;77.99;101677.25;4198519;28;20410;-64
2022/11/26 00:04:35;;;;;;;15.25;8.45;;;;;;;7.25;78.51;101685.88;4197657;28;20571;-64
2022/11/26 00:06:40;;;;;;;18.05;9.05;;;;;;;7.27;77.77;101685.16;4198410;28;20044;-64
2022/11/26 00:08:43;;;;;;;17.92;8.07;;;;;;;7.27;77.67;101687.75;4197297;28;20036;-64
2022/11/26 00:10:49;;;;;;;15.60;8.52;;;;;;;7.28;77.80;101689.50;4191842;28;20044;-64
2022/11/26 00:12:52;;;;;;;14.93;8.23;;;;;;;7.25;77.98;101694.53;4199449;28;20044;-64
2022/11/26 00:14:55;;;;;;;15.52;8.25;;;;;;;7.22;77.57;101691.78;4208680;28;20049;-64
2022/11/26 00:16:58;;;;;;;16.17;8.98;;;;;;;7.19;77.65;101691.66;4204115;28;20093;-64
2022/11/26 00:19:00;;;;;;;13.35;7.22;;;;;;;7.14;78.13;101695.69;4215040;28;20046;-64
2022/11/26 00:21:04;;;;;;;12.10;7.03;;;;;;;7.14;77.97;101703.47;4208475;28;20040;-64
2022/11/26 00:23:07;;;;;;;18.45;8.30;;;;;;;7.12;77.78;101698.22;4213242;28;20137;-64
2022/11/26 00:25:15;;;;;;;15.98;8.00;;;;;;;7.09;77.45;101702.38;4209507;28;20059;-64
2022/11/26 00:27:20;;;;;;;18.02;8.40;;;;;;;7.08;77.95;101708.34;4208272;28;20579;-64
2022/11/26 00:29:23;;;;;;;;;;;;;;;6.95;78.00;101717.19;4209323;28;20040;-64
2022/11/26 00:31:28;;;;;;;15.48;9.43;;;;;;;6.97;77.92;101716.47;4211554;28;19920;-64
2022/11/26 00:33:32;;;;;;;26.40;13.18;;;;;;;7.00;78.23;101720.91;4212289;28;20146;-63
2022/11/26 00:35:34;;;;;;;48.10;24.50;;;;;;;7.04;78.06;101729.69;4202334;28;20513;-64
2022/11/26 00:37:41;;;;;;;31.08;15.43;;;;;;;6.99;77.89;101730.38;4203180;28;20044;-64
2022/11/26 00:39:44;;;;;;;50.20;25.30;;;;;;;6.98;77.74;101732.88;4214599;28;20047;-64
2022/11/26 00:41:50;;;;;;;29.02;16.48;;;;;;;7.01;77.79;101729.53;4202587;28;20045;-64
2022/11/26 00:43:54;;;;;;;31.17;14.38;;;;;;;6.95;77.54;101738.78;4198375;28;20044;-64
2022/11/26 00:45:57;;;;;;;26.85;12.68;;;;;;;6.89;77.58;101746.25;4214680;28;20047;-63
2022/11/26 00:48:01;;;;;;;20.15;9.80;;;;;;;6.88;77.50;101744.47;4214811;28;20048;-63
2022/11/26 00:50:05;;;;;;;20.75;10.98;;;;;;;6.87;77.97;101749.56;4213424;28;20047;-63
2022/11/26 00:52:30;;;;;;;15.95;9.43;;;;;;;6.88;78.04;101748.72;4214663;28;20036;-63
2022/11/26 00:54:33;;;;;;;22.87;11.17;;;;;;;6.85;78.28;101749.47;4213879;28;20051;-64
2022/11/26 00:56:39;;;;;;;16.98;9.15;;;;;;;6.89;78.12;101760.84;4213304;28;20044;-64
2022/11/26 00:58:42;;;;;;;18.83;8.95;;;;;;;6.89;77.75;101755.69;4204112;28;20065;-64
2022/11/26 01:00:47;;;;;;;18.40;8.77;;;;;;;6.90;77.66;101754.88;4214331;28;20493;-64
2022/11/26 01:02:50;;;;;;;18.42;8.98;;;;;;;6.88;77.91;101757.38;4213230;28;20085;-64
2022/11/26 01:04:53;;;;;;;15.45;8.18;;;;;;;6.87;77.86;101753.00;4195550;28;20464;-64
2022/11/26 01:06:55;;;;;;;20.33;8.20;;;;;;;6.87;77.77;101763.34;4214236;28;20044;-64
2022/11/26 01:08:58;;;;;;;14.90;7.95;;;;;;;6.84;77.76;101768.38;4213167;28;20052;-63
2022/11/26 01:11:04;;;;;;;17.15;8.23;;;;;;;6.84;77.86;101767.50;4211241;28;20098;-64
2022/11/26 01:13:10;;;;;;;15.85;8.90;;;;;;;6.82;78.05;101770.88;4208213;28;20480;-63
2022/11/26 01:15:14;;;;;;;19.17;9.23;;;;;;;6.81;77.86;101768.22;4209093;28;20045;-64
2022/11/26 01:17:18;;;;;;;17.45;9.25;;;;;;;6.80;77.93;101771.59;4204578;28;20401;-64
2022/11/26 01:19:21;;;;;;;19.95;9.00;;;;;;;6.76;77.73;101775.75;4212194;28;20529;-63
2022/11/26 01:21:26;;;;;;;14.73;7.93;;;;;;;6.75;77.72;101775.66;4212826;28;20459;-64
2022/11/26 01:23:29;;;;;;;;;;;;;;;6.64;78.03;101782.84;4211619;28;20043;-64
2022/11/26 01:25:31;;;;;;;14.07;7.88;;;;;;;6.66;78.11;101782.94;4194874;28;20293;-63
2022/11/26 01:27:34;;;;;;;19.23;9.43;;;;;;;6.68;78.49;101789.09;4208030;28;20044;-63
2022/11/26 01:29:37;;;;;;;16.02;7.50;;;;;;;6.69;77.82;101791.75;4212045;28;20507;-64
2022/11/26 01:31:40;;;;;;;19.25;8.55;;;;;;;6.67;77.67;101790.75;4213603;28;20039;-64
2022/11/26 01:33:45;;;;;;;17.88;8.98;;;;;;;6.68;77.81;101796.84;4206656;28;20122;-64
2022/11/26 01:35:48;;;;;;;;;;;;;;;6.56;77.36;101792.81;4212258;28;20050;-63
2022/11/26 01:37:50;;;;;;;17.45;8.65;;;;;;;6.57;78.20;101798.84;4211604;28;19927;-63
2022/11/26 01:39:53;;;;;;;16.33;8.23;;;;;;;6.59;77.52;101800.72;4186487;28;20048;-64
2022/11/26 01:42:05;;;;;;;17.55;8.27;;;;;;;6.60;77.50;101805.09;4213157;28;20066;-63
2022/11/26 01:44:14;;;;;;;16.77;8.07;;;;;;;6.61;77.53;101816.28;4211182;28;20383;-64
2022/11/26 01:46:19;;;;;;;16.55;8.05;;;;;;;6.62;77.91;101812.91;4198329;28;20044;-63
2022/11/26 01:48:28;;;;;;;16.92;8.13;;;;;;;6.66;77.40;101821.69;4208309;28;20398;-64
2022/11/26 01:50:50;;;;;;;17.52;8.93;;;;;;;6.60;77.58;101830.91;4196032;28;20040;-64
2022/11/26 01:52:55;;;;;;;14.18;7.68;;;;;;;6.57;77.94;101832.44;4204406;28;20051;-63
2022/11/26 01:54:58;;;;;;;17.35;8.38;;;;;;;6.56;77.88;101828.97;4205734;28;20089;-64
2022/11/26 01:57:10;;;;;;;13.75;6.90;;;;;;;6.55;78.29;101831.47;4213754;28;20052;-64
2022/11/26 01:59:19;;;;;;;12.35;7.15;;;;;;;6.58;77.84;101829.94;4213862;28;20040;-63
2022/11/26 02:01:23;;;;;;;11.93;6.93;;;;;;;6.59;77.97;101834.31;4212606;28;20138;-63
2022/11/26 02:03:28;;;;;;;17.42;7.13;;;;;;;6.62;78.08;101834.47;4211763;28;20097;-64
2022/11/26 02:05:37;;;;;;;13.63;7.00;;;;;;;6.59;77.89;101830.84;4212654;28;20040;-63
2022/11/26 02:07:41;;;;;;;15.68;8.25;;;;;;;6.58;78.30;101837.69;4207707;28;20086;-64
2022/11/26 02:09:44;;;;;;;13.40;7.25;;;;;;;6.59;78.10;101841.19;4213572;28;20032;-64
2022/11/26 02:11:47;;;;;;;17.98;7.95;;;;;;;6.64;78.48;101845.78;4213596;28;20501;-64
2022/11/26 02:13:54;;;;;;;17.63;7.82;;;;;;;6.67;78.62;101850.19;4212943;28;20157;-63
2022/11/26 02:16:04;;;;;;;19.33;7.88;;;;;;;6.71;78.71;101849.56;4213717;28;20048;-63
2022/11/26 02:18:09;;;;;;;19.80;8.48;;;;;;;6.75;78.43;101853.22;4213093;28;20068;-64
2022/11/26 02:20:31;;;;;;;;;;;;;;;6.69;78.80;101852.84;4214098;28;20035;-64
2022/11/26 02:23:08;;;;;;;15.98;8.57;;;;;;;6.88;78.42;101853.03;4200256;28;19924;-63
2022/11/26 02:25:18;;;;;;;17.40;9.18;;;;;;;6.89;77.87;101852.22;4207127;28;20040;-64
2022/11/26 02:27:39;;;;;;;15.48;9.63;;;;;;;6.91;77.81;101852.31;4212137;28;20040;-63
2022/11/26 02:30:02;;;;;;;22.95;9.27;;;;;;;6.85;78.28;101855.47;4204003;28;20041;-63
2022/11/26 02:32:11;;;;;;;17.00;8.98;;;;;;;6.81;78.72;101861.28;4204511;28;20063;-63
2022/11/26 02:34:21;;;;;;;22.13;9.75;;;;;;;6.82;78.74;101866.53;4210032;28;20508;-63
2022/11/26 02:36:31;;;;;;;20.67;9.18;;;;;;;6.82;78.79;101858.75;4212666;28;20028;-63
2022/11/26 02:38:37;;;;;;;19.73;9.02;;;;;;;6.80;78.71;101860.41;4213357;28;20481;-63
2022/11/26 02:40:40;;;;;;;17.17;8.77;;;;;;;6.80;78.49;101864.66;4205597;28;20033;-63
2022/11/26 02:42:43;;;;;;;20.33;9.45;;;;;;;6.79;78.44;101876.72;4196807;28;20048;-63
2022/11/26 02:44:46;;;;;;;27.25;10.10;;;;;;;6.78;78.52;101872.34;4207947;28;20052;-63
2022/11/26 02:46:54;;;;;;;19.88;10.25;;;;;;;6.79;78.43;101875.78;4200745;28;20040;-63
2022/11/26 02:48:57;;;;;;;18.45;9.77;;;;;;;6.77;78.63;101883.47;4216569;28;20044;-63
2022/11/26 02:51:04;;;;;;;20.85;9.68;;;;;;;6.78;78.89;101881.78;4208644;28;20040;-63
2022/11/26 02:53:09;;;;;;;25.98;9.43;;;;;;;6.76;78.33;101888.56;4213056;28;20056;-64
2022/11/26 02:55:15;;;;;;;21.65;8.45;;;;;;;6.74;78.80;101883.31;4199527;28;20094;-64
2022/11/26 02:57:21;;;;;;;18.67;8.75;;;;;;;6.73;78.39;101888.41;4199659;28;20045;-63
2022/11/26 02:59:24;;;;;;;17.35;8.38;;;;;;;6.72;78.63;101891.81;4210145;28;20440;-63
2022/11/26 03:01:32;;;;;;;16.23;7.15;;;;;;;6.71;78.34;101901.25;4213903;28;20039;-63
2022/11/26 03:03:40;;;;;;;17.13;7.97;;;;;;;6.71;78.51;101902.94;4197987;28;20076;-63
2022/11/26 03:05:43;;;;;;;13.73;8.95;;;;;;;6.68;78.03;101895.03;4201286;28;20044;-63
2022/11/26 03:07:49;;;;;;;18.83;9.13;;;;;;;6.66;77.91;101902.72;4211034;28;20665;-63
2022/11/26 03:09:55;;;;;;;17.08;8.75;;;;;;;6.64;78.60;101904.31;4200393;28;20738;-63
2022/11/26 03:11:58;;;;;;;13.05;7.10;;;;;;;6.61;78.61;101898.97;4206689;28;20094;-63
2022/11/26 03:14:01;;;;;;;15.13;7.90;;;;;;;6.62;78.64;101909.41;4213006;28;20047;-63
2022/11/26 03:16:04;;;;;;;20.52;9.00;;;;;;;6.64;78.51;101910.38;4206460;28;20044;-63
2022/11/26 03:18:07;;;;;;;15.43;7.65;;;;;;;6.67;78.63;101908.75;4202110;28;20071;-63
2022/11/26 03:20:11;;;;;;;14.32;7.55;;;;;;;6.67;78.39;101907.06;4210692;28;20047;-64
2022/11/26 03:22:15;;;;;;;14.68;8.77;;;;;;;6.68;78.16;101905.38;4214778;28;20074;-63
2022/11/26 03:24:17;;;;;;;11.57;7.35;;;;;;;6.69;78.77;101907.13;4213036;28;20093;-63
2022/11/26 03:26:20;;;;;;;14.32;8.13;;;;;;;6.69;78.71;101910.63;4212706;28;20047;-63
2022/11/26 03:28:24;;;;;;;14.70;7.70;;;;;;;6.71;78.38;101905.53;4210127;28;20058;-63
2022/11/26 03:30:27;;;;;;;16.25;8.48;;;;;;;6.70;77.99;101908.91;4227772;28;20043;-63
2022/11/26 03:32:30;;;;;;;16.23;7.65;;;;;;;6.68;78.24;101915.72;4211258;28;20090;-63
2022/11/26 03:34:33;;;;;;;17.60;9.07;;;;;;;6.67;78.84;101909.63;4212972;28;20032;-64
2022/11/26 03:36:37;;;;;;;21.05;9.15;;;;;;;6.66;78.35;101910.47;4203020;28;20039;-63
2022/11/26 03:38:40;;;;;;;15.55;7.63;;;;;;;6.64;78.54;101912.97;4231397;28;20040;-63
2022/11/26 03:40:43;;;;;;;19.48;8.70;;;;;;;6.64;78.43;101912.97;4211139;28;20039;-64
2022/11/26 03:42:46;;;;;;;14.43;7.68;;;;;;;6.62;78.56;101916.28;4213014;28;20036;-63
2022/11/26 03:44:49;;;;;;;14.45;8.85;;;;;;;6.70;78.23;101919.25;4206202;28;20036;-63
2022/11/26 03:46:52;;;;;;;15.52;9.38;;;;;;;6.70;77.82;101911.50;4198949;28;20405;-64
2022/11/26 03:48:55;;;;;;;16.60;7.22;;;;;;;6.60;77.94;101923.03;4206564;28;20040;-63
2022/11/26 03:50:57;;;;;;;17.40;8.88;;;;;;;6.52;78.09;101914.88;4214729;28;20065;-63
2022/11/26 03:53:02;;;;;;;14.15;7.78;;;;;;;6.52;78.67;101911.41;4215574;28;20038;-63
2022/11/26 03:55:05;;;;;;;16.35;8.82;;;;;;;6.49;78.27;101914.72;4207799;28;20040;-63
2022/11/26 03:57:08;;;;;;;14.95;8.65;;;;;;;6.49;78.13;101914.72;4214766;28;20093;-63
2022/11/26 03:59:11;;;;;;;17.23;9.02;;;;;;;6.45;78.23;101911.09;4214641;28;20040;-63
2022/11/26 04:01:14;;;;;;;25.48;9.70;;;;;;;6.43;78.06;101914.38;4203127;28;20051;-63
2022/11/26 04:03:17;;;;;;;19.05;9.77;;;;;;;6.40;78.11;101911.63;4199123;28;20102;-64
2022/11/26 04:05:20;;;;;;;18.02;9.15;;;;;;;6.38;78.35;101915.81;4198540;28;20040;-64
2022/11/26 04:07:23;;;;;;;15.43;8.40;;;;;;;6.36;78.63;101909.69;4211752;28;20036;-63
2022/11/26 04:09:27;;;;;;;15.57;8.75;;;;;;;6.36;78.12;101907.97;4201528;28;20417;-64
2022/11/26 04:11:30;;;;;;;16.45;9.10;;;;;;;6.33;78.60;101902.66;4198322;28;20456;-63
2022/11/26 04:13:32;;;;;;;22.15;9.35;;;;;;;6.31;78.23;101908.53;4200976;28;20028;-63
2022/11/26 04:15:36;;;;;;;20.77;9.77;;;;;;;6.31;78.42;101905.94;4198543;28;20048;-63
2022/11/26 04:17:39;;;;;;;24.52;9.63;;;;;;;6.29;78.03;101898.13;4206082;28;20035;-63
2022/11/26 04:19:42;;;;;;;22.55;9.25;;;;;;;6.27;78.22;101900.63;4213485;28;20089;-63
2022/11/26 04:21:45;;;;;;;16.10;9.13;;;;;;;6.25;78.39;101891.91;4202128;28;20140;-64
2022/11/26 04:23:48;;;;;;;16.55;8.93;;;;;;;6.23;77.95;101898.66;4211061;28;20085;-63
2022/11/26 04:25:52;;;;;;;18.10;9.27;;;;;;;6.22;77.75;101888.25;4214981;28;20081;-64
2022/11/26 04:27:55;;;;;;;21.88;9.23;;;;;;;6.17;77.89;101893.16;4199440;28;20045;-63
2022/11/26 04:29:58;;;;;;;18.63;9.57;;;;;;;6.14;77.72;101895.59;4200276;28;20046;-63
2022/11/26 04:32:01;;;;;;;21.77;9.75;;;;;;;6.09;78.12;101903.09;4206526;28;20040;-63
2022/11/26 04:34:03;;;;;;;14.60;8.70;;;;;;;6.08;78.18;101900.41;4198511;28;20047;-63
2022/11/26 04:36:07;;;;;;;14.95;7.88;;;;;;;6.08;78.43;101900.41;4214106;28;20040;-63
2022/11/26 04:38:10;;;;;;;14.98;8.25;;;;;;;6.09;78.22;101900.50;4201974;28;20037;-63
2022/11/26 04:40:13;;;;;;;19.15;9.32;;;;;;;6.12;78.60;101912.69;4213284;28;20039;-63
2022/11/26 04:42:17;;;;;;;17.48;8.57;;;;;;;6.12;78.60;101912.69;4203112;28;20068;-63
2022/11/26 04:44:20;;;;;;;16.75;7.30;;;;;;;6.12;78.40;101920.44;4196103;28;20040;-63
2022/11/26 04:46:23;;;;;;;12.90;6.32;;;;;;;6.13;78.81;101924.78;4198766;28;20098;-63
2022/11/26 04:48:26;;;;;;;13.65;6.97;;;;;;;6.15;78.39;101922.28;4209467;28;20489;-63
2022/11/26 04:50:29;;;;;;;15.27;7.30;;;;;;;6.13;78.14;101937.69;4211304;28;20032;-63
2022/11/26 04:52:32;;;;;;;19.48;8.38;;;;;;;6.14;78.47;101933.44;4211143;28;20152;-63
2022/11/26 04:54:35;;;;;;;16.13;7.70;;;;;;;6.12;78.27;101943.69;4213505;28;20036;-63
2022/11/26 04:56:38;;;;;;;16.00;7.53;;;;;;;6.11;78.09;101945.34;4214310;28;20044;-64
2022/11/26 04:58:42;;;;;;;16.77;7.50;;;;;;;6.09;78.10;101944.38;4213677;28;20039;-64
2022/11/26 05:00:45;;;;;;;16.38;8.27;;;;;;;6.07;78.39;101945.97;4209783;28;20048;-64
2022/11/26 05:02:53;;;;;;;12.68;7.18;;;;;;;6.04;78.09;101944.94;4206229;28;20109;-64
2022/11/26 05:04:55;;;;;;;16.08;7.63;;;;;;;6.04;78.11;101955.25;4211322;28;20513;-64
2022/11/26 05:06:58;;;;;;;14.48;7.38;;;;;;;6.02;78.29;101955.16;4179871;28;20605;-64
2022/11/26 05:09:01;;;;;;;18.40;8.35;;;;;;;6.02;77.77;101949.13;4196437;28;20032;-63
2022/11/26 05:11:04;;;;;;;16.17;8.65;;;;;;;5.99;77.76;101947.25;4197554;28;20037;-64
2022/11/26 05:13:09;;;;;;;14.77;6.75;;;;;;;5.97;77.89;101953.09;4197306;28;20098;-64
2022/11/26 05:15:13;;;;;;;20.25;7.47;;;;;;;5.95;78.12;101955.59;4179263;28;20052;-63
2022/11/26 05:17:16;;;;;;;17.30;8.85;;;;;;;5.93;77.87;101952.91;4196936;28;20448;-63
2022/11/26 05:19:19;;;;;;;14.65;7.05;;;;;;;5.93;78.25;101965.81;4213704;28;20035;-63
2022/11/26 05:21:21;;;;;;;13.10;7.07;;;;;;;5.92;77.78;101974.38;4213427;28;20067;-63
2022/11/26 05:23:24;;;;;;;17.27;7.63;;;;;;;5.89;78.22;101971.59;4211706;28;20529;-63
2022/11/26 05:25:27;;;;;;;13.50;7.20;;;;;;;5.87;78.02;101975.81;4209849;28;20056;-64
2022/11/26 05:27:30;;;;;;;14.63;7.18;;;;;;;5.87;78.35;101977.47;4212991;28;20499;-64
2022/11/26 05:29:33;;;;;;;13.27;6.68;;;;;;;5.88;77.86;101981.84;4213981;28;20097;-63
2022/11/26 05:31:37;;;;;;;16.33;7.28;;;;;;;5.87;77.89;101987.81;4200081;28;20568;-63
2022/11/26 05:33:40;;;;;;;11.55;6.18;;;;;;;5.84;78.11;101988.53;4211932;28;20066;-63
2022/11/26 05:35:43;;;;;;;16.60;7.47;;;;;;;5.86;78.21;101986.03;4212694;28;20040;-63
2022/11/26 05:37:46;;;;;;;17.58;7.22;;;;;;;5.85;77.98;101990.28;4213328;28;20070;-63
2022/11/26 05:39:49;;;;;;;19.50;8.43;;;;;;;5.85;77.69;101986.84;4212118;28;20089;-63
2022/11/26 05:41:52;;;;;;;13.50;6.90;;;;;;;5.84;77.98;101992.78;4212352;28;20040;-64
2022/11/26 05:43:54;;;;;;;14.52;7.30;;;;;;;5.84;77.74;101993.69;4212453;28;20044;-63
2022/11/26 05:46:03;;;;;;;12.38;6.80;;;;;;;5.83;77.61;102002.22;4202226;28;20542;-63
2022/11/26 05:48:07;;;;;;;14.90;7.45;;;;;;;5.79;77.51;102004.56;4201262;28;20095;-64
2022/11/26 05:50:11;;;;;;;12.00;5.93;;;;;;;5.76;77.24;102010.41;4210986;28;20044;-63
2022/11/26 05:52:14;;;;;;;16.08;6.57;;;;;;;5.74;77.53;102015.47;4212843;28;20066;-64
2022/11/26 05:54:17;;;;;;;16.40;7.88;;;;;;;5.75;77.57;102018.94;4204373;28;20119;-63
2022/11/26 05:56:19;;;;;;;17.27;6.80;;;;;;;5.75;77.65;102013.78;4200096;28;20051;-64
2022/11/26 05:58:23;;;;;;;17.73;5.85;;;;;;;5.79;77.76;102015.75;4209060;28;20032;-63
2022/11/26 06:00:26;;;;;;;13.70;6.65;;;;;;;5.79;77.89;102005.44;4212942;28;20524;-63
2022/11/26 06:02:29;;;;;;;13.90;6.03;;;;;;;5.80;78.01;102009.81;4203206;28;20521;-63
2022/11/26 06:04:33;;;;;;;9.68;5.22;;;;;;;5.79;77.73;102004.56;4201862;28;20044;-63
2022/11/26 06:06:36;;;;;;;17.23;7.22;;;;;;;5.76;78.19;102005.25;4212184;28;20050;-63
2022/11/26 06:08:39;;;;;;;12.70;5.80;;;;;;;5.77;77.94;102014.78;4197102;28;20462;-63
2022/11/26 06:10:42;;;;;;;12.25;6.22;;;;;;;5.80;77.81;102017.53;4208031;28;20040;-63
2022/11/26 06:12:45;;;;;;;12.68;6.60;;;;;;;5.80;78.03;102009.81;4207862;28;20044;-63
2022/11/26 06:14:48;;;;;;;14.85;6.78;;;;;;;5.79;77.83;102010.59;4212801;28;20039;-63
2022/11/26 06:16:51;;;;;;;14.57;5.60;;;;;;;5.78;77.88;102021.69;4213721;28;20468;-63
2022/11/26 06:18:54;;;;;;;13.30;6.50;;;;;;;5.79;77.86;102026.06;4213822;28;20043;-63
2022/11/26 06:21:01;;;;;;;13.70;6.45;;;;;;;5.80;77.98;102029.53;4213685;28;20036;-64
2022/11/26 06:23:04;;;;;;;14.85;7.60;;;;;;;5.78;78.19;102032.03;4215058;28;20048;-64
2022/11/26 06:25:09;;;;;;;13.23;6.57;;;;;;;5.76;78.12;102031.94;4216376;28;20375;-63
2022/11/26 06:27:12;;;;;;;10.40;5.78;;;;;;;5.77;78.03;102038.88;4210674;28;20127;-64
2022/11/26 06:29:15;;;;;;;16.85;7.35;;;;;;;5.77;78.37;102027.69;4216862;28;20402;-63
2022/11/26 06:31:18;;;;;;;13.68;6.05;;;;;;;5.75;78.42;102043.09;4216887;28;20128;-63
2022/11/26 06:33:21;;;;;;;13.32;6.30;;;;;;;5.77;78.15;102040.59;4214798;28;20143;-63
2022/11/26 06:35:23;;;;;;;13.15;7.22;;;;;;;5.77;78.37;102045.75;4207528;28;20468;-64
2022/11/26 06:37:28;;;;;;;13.70;6.50;;;;;;;5.80;78.60;102051.09;4209312;28;20118;-63
2022/11/26 06:39:30;;;;;;;12.77;5.93;;;;;;;5.78;78.22;102055.25;4201432;28;20051;-64
2022/11/26 06:41:33;;;;;;;16.30;7.95;;;;;;;5.80;78.61;102058.84;4207573;28;20036;-63
2022/11/26 06:43:36;;;;;;;10.40;5.43;;;;;;;5.81;78.64;102063.19;4213297;28;20036;-64
2022/11/26 06:45:39;;;;;;;10.45;6.07;;;;;;;5.84;79.07;102070.22;4205068;28;20044;-64
2022/11/26 06:47:42;;;;;;;12.30;6.05;;;;;;;5.88;79.24;102067.91;4208749;28;20043;-63
2022/11/26 06:49:45;;;;;;;16.92;6.45;;;;;;;5.89;79.28;102069.69;4208084;28;20055;-63
2022/11/26 06:51:48;;;;;;;14.07;6.45;;;;;;;5.95;79.73;102070.03;4211066;28;20076;-63
2022/11/26 06:53:52;;;;;;;10.85;6.22;;;;;;;6.01;79.23;102066.97;4197798;28;20047;-63
2022/11/26 06:55:55;;;;;;;16.02;6.97;;;;;;;6.02;79.23;102068.75;4200659;28;20029;-63
2022/11/26 06:57:58;;;;;;;16.27;6.65;;;;;;;6.06;79.02;102072.41;4210759;28;20048;-64
2022/11/26 07:00:01;;;;;;;14.60;6.45;;;;;;;6.10;79.05;102066.63;4198665;28;20040;-64
2022/11/26 07:02:04;;;;;;;16.70;6.68;;;;;;;6.11;78.98;102074.44;4200438;28;20051;-64
2022/11/26 07:04:07;;;;;;;16.33;6.63;;;;;;;6.11;78.93;102077.03;4204395;28;20698;-64
2022/11/26 07:06:16;;;;;;;14.93;6.50;;;;;;;6.14;79.23;102071.16;4211360;28;20046;-63
2022/11/26 07:08:19;;;;;;;14.32;6.72;;;;;;;6.14;79.24;102067.72;4215736;28;20040;-63
2022/11/26 07:10:23;;;;;;;17.10;7.65;;;;;;;6.12;78.95;102065.03;4213116;28;20574;-63
2022/11/26 07:12:26;;;;;;;15.38;6.57;;;;;;;6.09;79.14;102073.50;4215402;28;20098;-63
2022/11/26 07:14:29;;;;;;;13.82;6.07;;;;;;;6.10;78.83;102071.78;4209236;28;20505;-63
2022/11/26 07:16:32;;;;;;;12.57;6.93;;;;;;;6.09;79.21;102083.81;4199444;28;20037;-63
2022/11/26 07:18:35;;;;;;;17.05;6.03;;;;;;;6.08;79.23;102089.78;4208512;28;20085;-63
2022/11/26 07:20:38;;;;;;;10.73;5.20;;;;;;;6.08;78.78;102091.47;4214236;28;20487;-63
2022/11/26 07:22:41;;;;;;;14.25;5.95;;;;;;;6.04;78.80;102094.66;4208879;28;20047;-63
2022/11/26 07:24:44;;;;;;;15.15;7.45;;;;;;;6.10;78.95;102100.19;4205769;28;20062;-63
2022/11/26 07:26:48;;;;;;;18.33;6.43;;;;;;;6.11;78.97;102102.84;4214432;28;20051;-63
2022/11/26 07:28:51;;;;;;;17.33;6.65;;;;;;;6.09;78.93;102099.31;4207634;28;20043;-63
2022/11/26 07:30:54;;;;;;;14.90;6.50;;;;;;;6.09;79.20;102101.00;4213743;28;20050;-63
2022/11/26 07:32:57;;;;;;;15.88;5.82;;;;;;;6.11;78.70;102107.13;4210762;28;20036;-64
2022/11/26 07:35:01;;;;;;;13.55;5.88;;;;;;;6.11;78.79;102105.44;4214235;28;20047;-64
2022/11/26 07:37:04;;;;;;;20.55;7.15;;;;;;;6.10;79.16;102107.94;4204436;28;20040;-64
2022/11/26 07:39:07;;;;;;;15.77;5.25;;;;;;;6.08;78.69;102107.84;4204051;28;20131;-63
2022/11/26 07:41:12;;;;;;;19.02;5.90;;;;;;;6.09;78.74;102108.75;4215711;28;20135;-64
2022/11/26 07:43:16;;;;;;;12.30;6.00;;;;;;;6.08;78.80;102107.84;4206496;28;20032;-63
2022/11/26 07:45:19;;;;;;;11.65;6.40;;;;;;;6.08;78.48;102112.13;4214520;28;20036;-64
2022/11/26 07:47:22;;;;;;;15.02;6.47;;;;;;;6.11;78.42;102117.47;4209854;28;20041;-63
2022/11/26 07:49:25;;;;;;;14.30;5.88;;;;;;;6.08;78.75;102115.59;4197786;28;20486;-63
2022/11/26 07:51:29;;;;;;;16.40;6.00;;;;;;;6.07;78.54;102118.06;4206694;28;20119;-64
2022/11/26 07:53:34;;;;;;;13.43;5.55;;;;;;;6.05;78.64;102118.00;4213277;28;20047;-64
2022/11/26 07:55:38;;;;;;;16.67;6.03;;;;;;;6.06;78.81;102118.88;4205386;28;20036;-64
2022/11/26 07:57:40;;;;;;;13.75;5.85;;;;;;;6.06;78.75;102119.78;4213460;28;20124;-64
2022/11/26 07:59:45;;;;;;;12.98;5.40;;;;;;;6.08;78.67;102122.44;4214937;28;20036;-64
2022/11/26 08:01:48;;;;;;;14.30;5.15;;;;;;;6.10;78.42;102131.16;4197215;28;20504;-64
2022/11/26 08:03:51;;;;;;;11.02;5.38;;;;;;;6.11;78.74;102138.13;4198975;28;20072;-63
2022/11/26 08:05:54;;;;;;;16.08;6.03;;;;;;;6.11;78.42;102139.00;4213591;28;20036;-64
2022/11/26 08:07:57;;;;;;;12.38;5.80;;;;;;;6.13;78.41;102131.34;4212301;28;20032;-63
2022/11/26 08:10:00;;;;;;;12.98;5.82;;;;;;;6.14;78.63;102138.31;4206336;28;20041;-64
2022/11/26 08:12:03;;;;;;;15.40;4.30;;;;;;;6.16;78.97;102139.28;4203529;28;20036;-64
2022/11/26 08:14:09;;;;;;;17.90;6.50;;;;;;;6.16;78.51;102135.81;4211264;28;20040;-64
2022/11/26 08:16:14;;;;;;;19.77;6.50;;;;;;;6.18;78.48;102144.56;4213409;28;20051;-64
2022/11/26 08:18:16;;;;;;;;;;;;;;;6.11;78.85;102140.72;4219064;28;20062;-63
2022/11/26 08:20:19;;;;;;;14.52;5.85;;;;;;;6.12;79.24;102134.75;4213862;28;19920;-64
2022/11/26 08:22:30;;;;;;;12.10;5.93;;;;;;;6.19;79.17;102139.47;4207495;28;20653;-63
2022/11/26 08:24:34;;;;;;;14.80;5.95;;;;;;;6.22;78.88;102134.50;4213898;28;20040;-64
2022/11/26 08:26:40;;;;;;;14.65;6.55;;;;;;;6.28;79.01;102142.59;4201603;28;20036;-63
2022/11/26 08:28:47;;;;;;;10.10;5.50;;;;;;;6.29;79.04;102148.63;4210239;28;20497;-64
2022/11/26 08:30:50;;;;;;;16.43;7.47;;;;;;;6.33;79.03;102148.03;4206703;28;20043;-64
2022/11/26 08:32:54;;;;;;;14.40;6.68;;;;;;;6.36;79.67;102144.75;4201584;28;20380;-63
2022/11/26 08:34:57;;;;;;;23.27;8.25;;;;;;;6.40;79.38;102146.72;4198539;28;20051;-63
2022/11/26 08:37:00;;;;;;;12.60;6.32;;;;;;;6.43;79.19;102152.03;4198099;28;20494;-63
2022/11/26 08:39:03;;;;;;;13.40;6.80;;;;;;;6.46;79.46;102154.81;4201825;28;20131;-63
2022/11/26 08:41:08;;;;;;;19.70;6.78;;;;;;;6.49;79.21;102157.56;4196854;28;20041;-63
2022/11/26 08:43:11;;;;;;;;;;;;;;;6.43;79.05;102150.34;4212721;28;20520;-63
2022/11/26 08:45:13;;;;;;;15.15;6.60;;;;;;;6.46;79.38;102152.22;4213868;28;19949;-63
2022/11/26 08:47:16;;;;;;;14.50;5.63;;;;;;;6.53;79.72;102156.94;4208415;28;20032;-63
2022/11/26 08:49:20;;;;;;;15.85;7.65;;;;;;;6.59;79.39;102159.00;4202357;28;20513;-63
2022/11/26 08:51:24;;;;;;;16.83;8.38;;;;;;;6.61;79.54;102150.53;4209508;28;20505;-63
2022/11/26 08:53:29;;;;;;;20.67;6.47;;;;;;;6.66;79.77;102155.06;4201455;28;20037;-63
2022/11/26 08:55:32;;;;;;;17.33;6.60;;;;;;;6.68;79.81;102153.47;4213179;28;20562;-63
2022/11/26 08:57:55;;;;;;;14.35;6.88;;;;;;;6.67;79.74;102156.84;4208324;28;20044;-63
2022/11/26 08:59:58;;;;;;;15.45;7.07;;;;;;;6.67;79.90;102156.84;4213712;28;20043;-63
2022/11/26 09:02:01;;;;;;;13.85;6.50;;;;;;;6.72;79.86;102161.47;4208225;28;20049;-63
2022/11/26 09:04:04;;;;;;;19.10;7.60;;;;;;;6.85;79.36;102157.91;4199413;28;20035;-63
2022/11/26 09:06:09;;;;;;;19.05;6.47;;;;;;;6.89;79.21;102162.47;4213385;28;20028;-63
2022/11/26 09:08:17;;;;;;;15.20;6.35;;;;;;;6.88;78.93;102160.66;4212812;28;20072;-64
2022/11/26 09:10:20;;;;;;;17.83;7.28;;;;;;;6.99;78.24;102164.75;4197611;28;20123;-65
2022/11/26 09:12:23;;;;;;;16.42;7.07;;;;;;;7.03;78.68;102167.50;4202136;28;20097;-64
2022/11/26 09:14:28;;;;;;;15.38;6.22;;;;;;;7.08;77.74;102172.13;4211275;28;20098;-64
2022/11/26 09:16:32;;;;;;;15.57;6.72;;;;;;;7.09;77.53;102175.59;4211145;28;20028;-64
2022/11/26 09:18:35;;;;;;;24.35;7.03;;;;;;;7.10;77.90;102187.75;4213056;28;20600;-63
2022/11/26 09:20:37;;;;;;;15.70;6.82;;;;;;;7.10;78.04;102186.03;4201188;28;20102;-64
2022/11/26 09:22:42;;;;;;;15.27;6.30;;;;;;;7.10;77.88;102192.91;4200821;28;20051;-65
2022/11/26 09:24:44;;;;;;;15.43;6.78;;;;;;;7.09;77.87;102191.13;4195326;28;20769;-63
2022/11/26 09:26:48;;;;;;;14.98;6.00;;;;;;;7.11;77.97;102193.00;4200920;28;20095;-64
2022/11/26 09:28:51;;;;;;;14.05;6.78;;;;;;;7.14;78.14;102192.25;4209418;28;20043;-63
2022/11/26 09:30:57;;;;;;;18.55;8.05;;;;;;;7.17;78.16;102195.03;4212187;28;20048;-63
2022/11/26 09:32:59;;;;;;;15.43;7.80;;;;;;;7.18;78.64;102194.22;4193162;28;20048;-63
2022/11/26 09:35:03;;;;;;;11.52;5.82;;;;;;;7.19;78.86;102187.38;4198485;28;20131;-64
2022/11/26 09:37:06;;;;;;;15.77;6.65;;;;;;;7.16;78.64;102191.53;4197245;28;20029;-64
2022/11/26 09:39:12;;;;;;;12.85;6.05;;;;;;;7.14;78.68;102200.00;4205278;28;20071;-64